Time;durP1;ratioP1;P1;durP2;ratioP2;P2;SDS_P1;SDS_P2;PMS_P1;PMS_P2;Temp;Humidity;BMP_temperature;BMP_pressure;BME280_temperature;BME280_humidity;BME280_pressure;Samples;Min_cycle;Max_cycle;Signal;HPM_P1;HPM_P2
2022/10/06 00:01:15;;;;;;;3.53;1.83;;;11.80;99.90;;;;;;5046710;28;20022;-83
2022/10/06 00:03:41;;;;;;;2.22;1.55;;;11.80;99.90;;;;;;5030607;28;20200;-83
2022/10/06 00:06:07;;;;;;;3.25;1.50;;;11.80;99.90;;;;;;5042844;28;20025;-83
2022/10/06 00:08:35;;;;;;;5.43;2.00;;;11.80;99.90;;;;;;5035820;28;20395;-83
2022/10/06 00:11:01;;;;;;;3.35;1.88;;;11.80;99.90;;;;;;5045357;28;20021;-82
2022/10/06 00:13:28;;;;;;;3.35;1.70;;;11.80;99.90;;;;;;5047120;28;20037;-83
2022/10/06 00:15:54;;;;;;;3.38;1.60;;;11.80;99.90;;;;;;5046669;28;20045;-83
2022/10/06 00:18:19;;;;;;;3.40;1.50;;;11.80;99.90;;;;;;5031979;28;20036;-83
2022/10/06 00:20:53;;;;;;;11.55;1.85;;;11.70;99.90;;;;;;5044314;28;20034;-83
2022/10/06 00:23:19;;;;;;;4.60;1.60;;;11.70;99.90;;;;;;5044223;28;20022;-83
2022/10/06 00:25:45;;;;;;;3.85;1.67;;;11.70;99.90;;;;;;5045383;28;20037;-83
2022/10/06 00:28:10;;;;;;;2.45;1.65;;;11.60;99.90;;;;;;5045573;28;20036;-83
2022/10/06 00:30:36;;;;;;;2.50;1.30;;;11.60;99.90;;;;;;5045735;28;20033;-83
2022/10/06 00:33:03;;;;;;;2.05;1.48;;;11.60;99.90;;;;;;5035549;28;20036;-82
2022/10/06 00:35:32;;;;;;;2.97;1.50;;;11.60;99.90;;;;;;5047209;28;20089;-83
2022/10/06 00:37:58;;;;;;;5.18;1.73;;;11.50;99.90;;;;;;5038230;28;20061;-83
2022/10/06 00:40:24;;;;;;;2.38;1.50;;;11.50;99.90;;;;;;5038615;28;20060;-83
2022/10/06 00:42:58;;;;;;;3.28;1.58;;;11.40;99.90;;;;;;5045924;28;20017;-82
2022/10/06 00:45:38;;;;;;;2.88;1.50;;;11.40;99.90;;;;;;5038962;28;20025;-77
2022/10/06 00:48:10;;;;;;;5.93;1.65;;;11.30;99.90;;;;;;5034371;28;20082;-77
2022/10/06 00:50:36;;;;;;;1.92;1.40;;;11.30;99.90;;;;;;5034331;28;20021;-77
2022/10/06 00:53:04;;;;;;;3.78;1.63;;;11.30;99.90;;;;;;5034413;28;20025;-77
2022/10/06 00:55:29;;;;;;;5.32;1.83;;;11.20;99.90;;;;;;5034487;28;20026;-77
2022/10/06 00:57:56;;;;;;;2.97;1.60;;;11.20;99.90;;;;;;5034296;28;20022;-78
2022/10/06 01:00:22;;;;;;;5.25;1.55;;;11.10;99.90;;;;;;5034211;28;20108;-77
2022/10/06 01:02:55;;;;;;;2.13;1.48;;;11.10;99.90;;;;;;5034358;28;20064;-77
2022/10/06 01:05:31;;;;;;;3.67;1.80;;;11.00;99.90;;;;;;5034116;28;20389;-77
2022/10/06 01:07:57;;;;;;;3.08;1.60;;;11.00;99.90;;;;;;5034193;28;20025;-77
2022/10/06 01:10:23;;;;;;;5.40;1.90;;;10.90;99.90;;;;;;5033882;28;20021;-77
2022/10/06 01:12:50;;;;;;;2.72;1.80;;;10.80;99.90;;;;;;5034292;28;20033;-77
2022/10/06 01:15:17;;;;;;;3.45;2.00;;;10.70;99.90;;;;;;5033613;28;20125;-77
2022/10/06 01:17:56;;;;;;;4.38;1.55;;;10.70;99.90;;;;;;5033763;28;20014;-77
2022/10/06 01:20:22;;;;;;;2.35;1.63;;;10.60;99.90;;;;;;5033559;28;20364;-77
2022/10/06 01:23:09;;;;;;;2.95;1.60;;;10.60;99.90;;;;;;5033879;28;20042;-77
2022/10/06 01:25:35;;;;;;;4.20;1.70;;;10.60;99.90;;;;;;5014240;28;20033;-77
2022/10/06 01:28:04;;;;;;;3.75;1.67;;;10.60;99.90;;;;;;5013876;28;20113;-77
2022/10/06 01:30:40;;;;;;;3.08;1.42;;;10.60;99.90;;;;;;5014007;28;20514;-77
2022/10/06 01:33:06;;;;;;;5.10;1.45;;;10.50;99.90;;;;;;5014038;28;20420;-77
2022/10/06 01:35:32;;;;;;;5.93;1.80;;;10.50;99.90;;;;;;5043378;28;20029;-78
2022/10/06 01:37:58;;;;;;;6.85;2.22;;;10.60;99.90;;;;;;5053296;28;20025;-78
2022/10/06 01:40:28;;;;;;;4.20;1.63;;;10.50;99.90;;;;;;5053462;28;20096;-78
2022/10/06 01:42:54;;;;;;;5.50;2.13;;;10.50;99.90;;;;;;5047009;28;20056;-77
2022/10/06 01:45:20;;;;;;;2.33;1.63;;;10.50;99.90;;;;;;5021065;28;20029;-77
2022/10/06 01:47:46;;;;;;;6.18;1.52;;;10.60;99.90;;;;;;5031811;28;20501;-77
2022/10/06 01:50:12;;;;;;;4.38;1.70;;;10.50;99.90;;;;;;5033639;28;20105;-78
2022/10/06 01:52:37;;;;;;;2.83;1.57;;;10.50;99.90;;;;;;5033165;28;20537;-77
2022/10/06 01:55:04;;;;;;;5.53;1.73;;;10.50;99.90;;;;;;5033138;28;20490;-77
2022/10/06 01:57:29;;;;;;;8.18;2.00;;;10.50;99.90;;;;;;5033056;28;20100;-77
2022/10/06 01:59:55;;;;;;;6.10;2.05;;;10.50;99.90;;;;;;5033494;28;20113;-77
2022/10/06 02:02:20;;;;;;;4.00;1.73;;;10.50;99.90;;;;;;5033211;28;20037;-77
2022/10/06 02:04:46;;;;;;;4.75;1.50;;;10.50;99.90;;;;;;5033406;28;20083;-77
2022/10/06 02:07:12;;;;;;;3.97;1.63;;;10.50;99.90;;;;;;5033218;28;20070;-77
2022/10/06 02:09:37;;;;;;;3.00;1.60;;;10.50;99.90;;;;;;5032850;28;20096;-77
2022/10/06 02:12:04;;;;;;;3.00;1.40;;;10.50;99.90;;;;;;5033061;28;20390;-77
2022/10/06 02:14:31;;;;;;;4.27;1.50;;;10.60;99.90;;;;;;5032975;28;20041;-77
2022/10/06 02:16:57;;;;;;;6.65;1.80;;;10.60;99.90;;;;;;5032974;28;20040;-77
2022/10/06 02:19:22;;;;;;;4.07;1.77;;;10.70;99.90;;;;;;5032814;28;20025;-77
2022/10/06 02:21:48;;;;;;;8.33;3.10;;;10.70;99.90;;;;;;5032780;28;20434;-77
2022/10/06 02:24:14;;;;;;;8.30;3.80;;;10.80;99.90;;;;;;5033347;28;20053;-77
2022/10/06 02:26:39;;;;;;;9.63;4.75;;;10.80;99.90;;;;;;5032905;28;20120;-77
2022/10/06 02:29:05;;;;;;;10.73;3.45;;;10.80;99.90;;;;;;5032960;28;20110;-77
2022/10/06 02:31:31;;;;;;;6.93;3.00;;;10.90;99.90;;;;;;5033669;28;20022;-77
2022/10/06 02:33:57;;;;;;;7.47;3.03;;;10.90;99.90;;;;;;5037384;28;20377;-78
2022/10/06 02:36:23;;;;;;;8.40;2.40;;;10.90;99.90;;;;;;5037350;28;20033;-78
2022/10/06 02:38:49;;;;;;;3.65;1.83;;;10.90;99.90;;;;;;5036629;28;20017;-78
2022/10/06 02:41:14;;;;;;;5.57;1.90;;;10.90;99.90;;;;;;5036891;28;20025;-77
2022/10/06 02:43:40;;;;;;;4.78;2.20;;;11.00;99.90;;;;;;5036618;28;20022;-77
2022/10/06 02:46:10;;;;;;;4.60;2.00;;;10.90;99.90;;;;;;5036883;28;20030;-77
2022/10/06 02:48:36;;;;;;;5.90;1.80;;;10.90;99.90;;;;;;5034453;28;20052;-78
2022/10/06 02:51:08;;;;;;;4.50;1.70;;;11.00;99.90;;;;;;5016718;28;20034;-78
2022/10/06 02:53:35;;;;;;;5.67;1.87;;;11.00;99.90;;;;;;5016741;28;20022;-77
2022/10/06 02:56:09;;;;;;;2.60;1.43;;;10.90;99.90;;;;;;5016713;28;20040;-77
2022/10/06 02:58:35;;;;;;;2.85;1.80;;;10.90;99.90;;;;;;5030542;28;20413;-77
2022/10/06 03:01:08;;;;;;;2.60;1.90;;;10.90;99.90;;;;;;5036793;28;20107;-77
2022/10/06 03:03:35;;;;;;;4.28;2.15;;;10.90;99.90;;;;;;5036315;28;20030;-77
2022/10/06 03:06:22;;;;;;;4.15;2.00;;;10.90;99.90;;;;;;5036335;28;20493;-77
2022/10/06 03:08:52;;;;;;;3.63;1.77;;;10.90;99.90;;;;;;5036230;28;20021;-77
2022/10/06 03:11:19;;;;;;;4.72;2.00;;;10.90;99.90;;;;;;5036126;28;20064;-77
2022/10/06 03:13:45;;;;;;;4.18;1.80;;;10.80;99.90;;;;;;5036258;28;20030;-77
2022/10/06 03:16:21;;;;;;;4.78;2.00;;;10.80;99.90;;;;;;5017060;28;20362;-77
2022/10/06 03:18:48;;;;;;;6.03;2.80;;;10.80;99.90;;;;;;5016485;28;20156;-77
2022/10/06 03:21:15;;;;;;;5.90;2.17;;;10.80;99.90;;;;;;5034495;28;20080;-77
2022/10/06 03:23:42;;;;;;;4.75;2.20;;;10.80;99.90;;;;;;5034671;28;20486;-77
2022/10/06 03:26:08;;;;;;;6.25;2.70;;;10.70;99.90;;;;;;5035813;28;20029;-77
2022/10/06 03:28:34;;;;;;;5.40;2.53;;;10.70;99.90;;;;;;5035982;28;20429;-77
2022/10/06 03:31:04;;;;;;;4.20;2.20;;;10.80;99.90;;;;;;5035736;28;20108;-77
2022/10/06 03:33:30;;;;;;;6.90;2.50;;;10.70;99.90;;;;;;5035871;28;20036;-77
2022/10/06 03:36:15;;;;;;;7.15;2.85;;;10.70;99.90;;;;;;5035554;28;20167;-77
2022/10/06 03:38:40;;;;;;;4.20;2.67;;;10.70;99.90;;;;;;5036420;28;20087;-77
2022/10/06 03:41:09;;;;;;;10.18;2.30;;;10.70;99.90;;;;;;5035685;28;20260;-77
2022/10/06 03:43:35;;;;;;;6.88;2.08;;;10.80;99.90;;;;;;5035072;28;20494;-77
2022/10/06 03:46:02;;;;;;;5.72;2.10;;;10.80;99.90;;;;;;5035663;28;20432;-77
2022/10/06 03:48:29;;;;;;;5.30;2.08;;;10.80;99.90;;;;;;5035690;28;20065;-78
2022/10/06 03:50:57;;;;;;;4.47;2.10;;;10.90;99.90;;;;;;5035714;28;20100;-77
2022/10/06 03:53:26;;;;;;;3.78;1.95;;;10.90;99.90;;;;;;5034315;28;20466;-77
2022/10/06 03:56:24;;;;;;;3.05;1.92;;;10.90;99.90;;;;;;5035445;28;20021;-77
2022/10/06 03:58:55;;;;;;;4.05;2.28;;;11.00;99.90;;;;;;5031387;28;20077;-77
2022/10/06 04:01:24;;;;;;;5.05;2.83;;;11.00;99.90;;;;;;5035802;28;20053;-77
2022/10/06 04:03:50;;;;;;;4.90;3.03;;;11.00;99.90;;;;;;5035416;28;20347;-77
2022/10/06 04:06:18;;;;;;;7.88;3.40;;;11.10;99.90;;;;;;5035294;28;20044;-77
2022/10/06 04:08:45;;;;;;;3.97;2.60;;;11.20;99.90;;;;;;5035568;28;20025;-77
2022/10/06 04:11:19;;;;;;;7.07;2.75;;;11.20;99.90;;;;;;5034926;28;20101;-77
2022/10/06 04:13:44;;;;;;;6.57;2.45;;;11.20;99.90;;;;;;5035141;28;20029;-77
2022/10/06 04:16:23;;;;;;;5.63;2.53;;;11.20;99.90;;;;;;5035238;28;20049;-77
2022/10/06 04:18:51;;;;;;;7.57;2.60;;;11.30;99.90;;;;;;5035067;28;20029;-77
2022/10/06 04:21:17;;;;;;;3.92;2.38;;;11.30;99.90;;;;;;5035152;28;20063;-77
2022/10/06 04:23:43;;;;;;;4.82;2.60;;;11.30;99.90;;;;;;5034981;28;20049;-77
2022/10/06 04:26:13;;;;;;;3.90;2.15;;;11.30;99.90;;;;;;5034973;28;20080;-77
2022/10/06 04:28:40;;;;;;;4.63;2.20;;;11.20;99.90;;;;;;5035047;28;20124;-77
2022/10/06 04:31:23;;;;;;;3.80;2.10;;;11.20;99.90;;;;;;5034687;28;20026;-77
2022/10/06 04:33:52;;;;;;;4.07;1.95;;;11.20;99.90;;;;;;5033247;28;20124;-77
2022/10/06 04:36:23;;;;;;;5.85;2.00;;;11.10;99.90;;;;;;5028402;28;20386;-77
2022/10/06 04:38:50;;;;;;;5.47;2.20;;;11.10;99.90;;;;;;5018561;28;20014;-77
2022/10/06 04:41:17;;;;;;;4.75;1.83;;;11.10;99.90;;;;;;5035410;28;20041;-80
2022/10/06 04:43:47;;;;;;;3.70;2.15;;;11.00;99.90;;;;;;5036224;28;20026;-80
2022/10/06 04:46:14;;;;;;;4.95;2.10;;;11.00;99.90;;;;;;5036645;28;20036;-80
2022/10/06 04:48:40;;;;;;;5.18;2.03;;;10.90;99.90;;;;;;5036777;28;20028;-80
2022/10/06 04:51:09;;;;;;;3.33;1.90;;;10.90;99.90;;;;;;5036793;28;20033;-80
2022/10/06 04:53:34;;;;;;;5.28;1.67;;;10.80;99.90;;;;;;5036096;28;20021;-80
2022/10/06 04:56:02;;;;;;;4.75;1.92;;;10.80;99.90;;;;;;5035092;28;20045;-80
2022/10/06 04:58:36;;;;;;;4.68;2.05;;;10.70;99.90;;;;;;5035786;28;20033;-80
2022/10/06 05:01:03;;;;;;;5.55;2.15;;;10.70;99.90;;;;;;5035289;28;20049;-76
2022/10/06 05:03:30;;;;;;;9.30;1.87;;;10.70;99.90;;;;;;5034826;28;20018;-80
2022/10/06 05:06:13;;;;;;;4.25;2.08;;;10.60;99.90;;;;;;5034770;28;20355;-80
2022/10/06 05:08:39;;;;;;;6.03;2.08;;;10.60;99.90;;;;;;5033641;28;20032;-79
2022/10/06 05:11:09;;;;;;;4.95;2.00;;;10.60;99.90;;;;;;5034565;28;20033;-76
2022/10/06 05:13:36;;;;;;;5.45;2.17;;;10.50;99.90;;;;;;5032355;28;20026;-81
2022/10/06 05:16:03;;;;;;;5.20;1.90;;;10.50;99.90;;;;;;5034496;28;20042;-82
2022/10/06 05:18:29;;;;;;;3.50;1.90;;;10.50;99.90;;;;;;5034171;28;20029;-82
2022/10/06 05:21:00;;;;;;;3.78;2.00;;;10.50;99.90;;;;;;5030407;28;20021;-82
2022/10/06 05:23:27;;;;;;;5.35;2.10;;;10.40;99.90;;;;;;5031427;28;20458;-80
2022/10/06 05:25:55;;;;;;;4.00;2.10;;;10.40;99.90;;;;;;5035114;28;20025;-79
2022/10/06 05:28:22;;;;;;;3.92;2.13;;;10.40;99.90;;;;;;5035319;28;20068;-79
2022/10/06 05:31:15;;;;;;;6.68;2.08;;;10.30;99.90;;;;;;5036096;28;20060;-79
2022/10/06 05:33:41;;;;;;;7.17;2.47;;;10.30;99.90;;;;;;5033639;28;20040;-80
2022/10/06 05:36:19;;;;;;;5.73;2.37;;;10.20;99.90;;;;;;5034296;28;20033;-80
2022/10/06 05:38:45;;;;;;;7.53;2.50;;;10.20;99.90;;;;;;5034754;28;20366;-80
2022/10/06 05:41:41;;;;;;;4.00;2.80;;;10.20;99.90;;;;;;5034112;28;20105;-80
2022/10/06 05:44:07;;;;;;;5.63;3.33;;;10.20;99.90;;;;;;5033273;28;20035;-80
2022/10/06 05:46:33;;;;;;;3.63;2.20;;;10.20;99.90;;;;;;5034042;28;20109;-80
2022/10/06 05:49:02;;;;;;;9.63;3.70;;;10.20;99.90;;;;;;5034088;28;20029;-80
2022/10/06 05:51:29;;;;;;;8.17;4.43;;;10.20;99.90;;;;;;5034205;28;20030;-80
2022/10/06 05:53:55;;;;;;;12.57;5.30;;;10.20;99.90;;;;;;5033692;28;20049;-80
2022/10/06 05:56:23;;;;;;;9.57;4.20;;;10.20;99.90;;;;;;5033270;28;20103;-80
2022/10/06 05:58:53;;;;;;;12.83;5.40;;;10.20;99.90;;;;;;5033704;28;20461;-80
2022/10/06 06:01:22;;;;;;;7.03;3.67;;;10.20;99.90;;;;;;5033223;28;20466;-80
2022/10/06 06:03:53;;;;;;;9.20;3.40;;;10.20;99.90;;;;;;5034289;28;20032;-80
2022/10/06 06:06:26;;;;;;;8.68;3.50;;;10.20;99.90;;;;;;5033146;28;20090;-80
2022/10/06 06:09:06;;;;;;;6.43;3.20;;;10.30;99.90;;;;;;5033708;28;20026;-80
2022/10/06 06:11:33;;;;;;;4.63;2.77;;;10.30;99.90;;;;;;5033586;28;20032;-80
2022/10/06 06:14:10;;;;;;;10.27;3.97;;;10.40;99.90;;;;;;5033437;28;20026;-80
2022/10/06 06:16:37;;;;;;;8.23;3.47;;;10.40;99.90;;;;;;5033288;28;20507;-80
2022/10/06 06:19:06;;;;;;;9.40;3.13;;;10.40;99.90;;;;;;5034216;28;20072;-80
2022/10/06 06:21:32;;;;;;;6.27;2.93;;;10.50;99.90;;;;;;5035472;28;20025;-80
2022/10/06 06:23:57;;;;;;;8.63;4.13;;;10.50;99.90;;;;;;5033532;28;20057;-80
2022/10/06 06:26:25;;;;;;;11.23;4.00;;;10.60;99.90;;;;;;5033746;28;20083;-80
2022/10/06 06:28:53;;;;;;;14.55;4.43;;;10.60;99.90;;;;;;5033634;28;20108;-80
2022/10/06 06:31:22;;;;;;;13.40;4.30;;;10.70;99.90;;;;;;5033349;28;20451;-80
2022/10/06 06:33:51;;;;;;;9.73;4.13;;;10.70;99.90;;;;;;5033462;28;20045;-80
2022/10/06 06:36:24;;;;;;;12.57;4.00;;;10.80;99.90;;;;;;5033536;28;20030;-80
2022/10/06 06:38:51;;;;;;;13.40;3.85;;;10.90;99.90;;;;;;5033363;28;20079;-80
2022/10/06 06:41:28;;;;;;;10.80;4.20;;;10.90;99.90;;;;;;5033103;28;20041;-80
2022/10/06 06:43:54;;;;;;;21.23;5.38;;;11.00;99.90;;;;;;5033297;28;20414;-80
2022/10/06 06:46:25;;;;;;;12.88;4.45;;;11.10;99.90;;;;;;5033083;28;20033;-80
2022/10/06 06:48:52;;;;;;;12.90;3.55;;;11.10;99.90;;;;;;5032944;28;20055;-80
2022/10/06 06:51:21;;;;;;;11.25;3.17;;;11.30;99.90;;;;;;5033364;28;20068;-80
2022/10/06 06:53:46;;;;;;;5.68;3.17;;;11.30;99.90;;;;;;5033156;28;20102;-80
2022/10/06 06:56:12;;;;;;;7.22;2.70;;;11.40;99.90;;;;;;5033194;28;20101;-80
2022/10/06 06:58:38;;;;;;;6.88;2.85;;;11.50;99.90;;;;;;5033157;28;20459;-80
2022/10/06 07:01:12;;;;;;;11.40;2.60;;;11.70;99.90;;;;;;5032869;28;20360;-80
2022/10/06 07:03:39;;;;;;;7.07;2.53;;;11.70;99.90;;;;;;5033141;28;20025;-80
2022/10/06 07:06:09;;;;;;;7.50;2.67;;;11.90;99.90;;;;;;5028685;28;20613;-77
2022/10/06 07:08:37;;;;;;;4.55;2.20;;;12.00;99.90;;;;;;5030093;28;20029;-77
2022/10/06 07:11:23;;;;;;;11.27;2.38;;;12.10;99.90;;;;;;5024912;28;20034;-78
2022/10/06 07:13:54;;;;;;;11.57;2.90;;;12.30;99.90;;;;;;5027217;28;20026;-77
2022/10/06 07:27:34;;;;;;;5.85;1.80;;;13.10;99.90;;;;;;5033571;28;20036;-77
2022/10/06 07:29:59;;;;;;;5.28;2.00;;;13.30;99.90;;;;;;5033222;28;20040;-78
2022/10/06 07:32:29;;;;;;;5.03;1.90;;;13.40;99.90;;;;;;5032313;28;20113;-78
2022/10/06 07:34:57;;;;;;;4.60;2.10;;;13.60;99.90;;;;;;5033769;28;20041;-78
2022/10/06 07:37:24;;;;;;;5.13;2.03;;;13.80;99.90;;;;;;5033866;28;20049;-77
2022/10/06 07:39:50;;;;;;;4.25;2.22;;;13.90;99.90;;;;;;5032939;28;20075;-78
2022/10/06 07:42:17;;;;;;;4.93;1.90;;;14.10;99.90;;;;;;5033613;28;20022;-78
2022/10/06 07:44:43;;;;;;;5.38;2.30;;;14.20;99.90;;;;;;5018404;28;20032;-78
2022/10/06 07:47:09;;;;;;;4.28;2.03;;;14.40;99.90;;;;;;5033330;28;20092;-78
2022/10/06 07:49:35;;;;;;;4.57;2.20;;;14.60;99.90;;;;;;5033320;28;20113;-78
2022/10/06 07:52:01;;;;;;;4.13;2.30;;;14.80;99.90;;;;;;5033633;28;20437;-78
2022/10/06 07:54:27;;;;;;;4.25;1.80;;;15.00;99.90;;;;;;5033267;28;20034;-78
2022/10/06 07:56:54;;;;;;;5.15;2.42;;;15.20;99.90;;;;;;5033197;28;20052;-78
2022/10/06 07:59:20;;;;;;;5.05;1.90;;;15.40;99.90;;;;;;5033245;28;20026;-78
2022/10/06 08:01:46;;;;;;;6.22;2.35;;;15.50;99.90;;;;;;5033041;28;20028;-78
2022/10/06 08:04:12;;;;;;;5.30;1.83;;;15.70;99.90;;;;;;5033507;28;20045;-78
2022/10/06 08:06:39;;;;;;;6.50;2.33;;;15.80;99.90;;;;;;5033373;28;20036;-78
2022/10/06 08:09:05;;;;;;;7.10;2.20;;;15.90;99.90;;;;;;5032977;28;20070;-78
2022/10/06 08:11:31;;;;;;;6.70;1.92;;;16.00;99.90;;;;;;5033013;28;20021;-77
2022/10/06 08:13:57;;;;;;;5.10;1.98;;;16.10;99.90;;;;;;5033075;28;20029;-78
2022/10/06 08:16:28;;;;;;;6.95;2.33;;;16.20;99.90;;;;;;5017452;28;20402;-78
2022/10/06 08:18:56;;;;;;;6.55;2.00;;;16.40;99.90;;;;;;5032804;28;20382;-78
2022/10/06 08:21:24;;;;;;;3.47;1.80;;;16.50;99.90;;;;;;5033097;28;20037;-78
2022/10/06 08:23:52;;;;;;;3.63;2.10;;;16.70;99.90;;;;;;5021862;28;20033;-78
2022/10/06 08:26:20;;;;;;;5.60;1.80;;;16.80;99.90;;;;;;5021410;28;20037;-77
2022/10/06 08:28:48;;;;;;;3.90;2.22;;;16.80;99.90;;;;;;5032029;28;20018;-78
2022/10/06 08:31:16;;;;;;;6.05;2.03;;;16.90;99.90;;;;;;5027429;28;20045;-78
2022/10/06 08:33:43;;;;;;;4.93;2.00;;;17.00;99.90;;;;;;5021054;28;20026;-78
2022/10/06 08:36:13;;;;;;;6.15;1.92;;;17.00;99.90;;;;;;5031740;28;20366;-78
2022/10/06 08:38:39;;;;;;;5.47;2.40;;;17.10;99.90;;;;;;5032729;28;20116;-78
2022/10/06 08:41:38;;;;;;;5.47;2.20;;;17.30;99.90;;;;;;5028752;28;20026;-78
2022/10/06 08:44:17;;;;;;;6.10;2.22;;;17.30;99.90;;;;;;5026562;28;20040;-78
2022/10/06 08:47:01;;;;;;;4.18;2.13;;;17.40;99.90;;;;;;5030939;28;20061;-78
2022/10/06 08:49:39;;;;;;;8.02;3.22;;;17.60;99.90;;;;;;5032464;28;20624;-78
2022/10/06 08:52:45;;;;;;;4.70;2.20;;;17.70;99.90;;;;;;5032227;28;20406;-78
2022/10/06 08:55:17;;;;;;;;;;;17.90;99.90;;;;;;5020322;28;20021;-78
2022/10/06 08:58:16;;;;;;;5.20;2.40;;;18.10;99.90;;;;;;5032106;28;19912;-78
2022/10/06 09:00:42;;;;;;;7.00;2.45;;;18.30;99.90;;;;;;5031445;28;20360;-78
2022/10/06 09:03:21;;;;;;;5.63;2.15;;;18.50;99.90;;;;;;5032042;28;20033;-78
2022/10/06 09:05:47;;;;;;;4.35;1.98;;;18.80;99.90;;;;;;5032115;28;20030;-78
2022/10/06 09:08:44;;;;;;;4.28;2.30;;;18.90;99.90;;;;;;5030643;28;20072;-78
2022/10/06 09:11:44;;;;;;;5.60;2.22;;;19.10;99.90;;;;;;5026732;28;20037;-78
2022/10/06 09:14:16;;;;;;;5.38;2.13;;;19.30;99.90;;;;;;5026350;28;20034;-78
2022/10/06 09:16:47;;;;;;;4.68;2.08;;;19.30;99.90;;;;;;5033679;28;20474;-78
2022/10/06 09:19:18;;;;;;;5.18;2.40;;;19.40;99.90;;;;;;5033041;28;20025;-78
2022/10/06 09:21:48;;;;;;;6.38;2.67;;;19.40;99.90;;;;;;5032793;28;20026;-78
2022/10/06 09:24:49;;;;;;;4.72;2.40;;;19.40;99.90;;;;;;5033369;28;20018;-78
2022/10/06 09:27:32;;;;;;;5.35;2.03;;;19.50;99.90;;;;;;5032638;28;20057;-78
2022/10/06 09:29:59;;;;;;;6.00;2.17;;;19.50;99.90;;;;;;5033521;28;20033;-78
2022/10/06 09:32:27;;;;;;;7.38;2.20;;;19.60;99.90;;;;;;5033212;28;20105;-78
2022/10/06 09:35:03;;;;;;;12.13;2.50;;;19.70;99.90;;;;;;5033251;28;20025;-78
2022/10/06 09:38:06;;;;;;;5.05;2.33;;;19.80;99.90;;;;;;5033163;28;20033;-78
2022/10/06 09:40:37;;;;;;;5.90;2.50;;;20.00;99.90;;;;;;5034411;28;20416;-78
2022/10/06 09:43:25;;;;;;;5.38;2.38;;;19.90;99.90;;;;;;5032332;28;20028;-78
2022/10/06 09:46:16;;;;;;;10.07;2.53;;;20.00;99.90;;;;;;5031924;28;20021;-78
2022/10/06 09:48:42;;;;;;;6.38;2.70;;;20.10;99.90;;;;;;5033121;28;20032;-78
2022/10/06 09:51:11;;;;;;;5.30;2.72;;;20.20;99.90;;;;;;5033212;28;20116;-78
2022/10/06 09:53:40;;;;;;;5.95;2.70;;;20.10;99.90;;;;;;5032429;28;20033;-78
2022/10/06 09:56:23;;;;;;;5.63;2.70;;;20.10;99.90;;;;;;5032631;28;20539;-78
2022/10/06 09:58:57;;;;;;;5.00;2.60;;;20.10;99.90;;;;;;5031108;28;20030;-78
2022/10/06 10:01:25;;;;;;;7.88;2.70;;;20.10;99.90;;;;;;5029765;28;20053;-78
2022/10/06 10:03:56;;;;;;;5.47;2.55;;;20.10;99.90;;;;;;5028765;28;20033;-78
2022/10/06 10:06:33;;;;;;;3.47;2.10;;;20.20;99.90;;;;;;5023988;28;20033;-78
2022/10/06 10:09:23;;;;;;;4.65;2.55;;;20.20;99.90;;;;;;5032940;28;20033;-78
2022/10/06 10:12:23;;;;;;;5.78;2.60;;;20.40;99.90;;;;;;5036660;28;20440;-83
2022/10/06 10:15:21;;;;;;;9.20;2.58;;;20.50;99.90;;;;;;5031546;28;20386;-83
2022/10/06 10:17:59;;;;;;;8.13;2.58;;;20.60;99.90;;;;;;5032718;28;20501;-83
2022/10/06 10:20:27;;;;;;;7.07;2.45;;;20.60;99.90;;;;;;5021915;28;20025;-83
2022/10/06 10:22:57;;;;;;;6.30;2.42;;;20.80;99.90;;;;;;5028499;28;20006;-83
2022/10/06 10:26:00;;;;;;;8.07;2.28;;;20.90;99.90;;;;;;5036404;28;20025;-84
2022/10/06 10:28:45;;;;;;;5.03;2.80;;;21.00;99.90;;;;;;5016183;28;20037;-84
2022/10/06 10:31:20;;;;;;;6.53;2.50;;;21.00;99.90;;;;;;5029592;28;20407;-83
2022/10/06 10:33:53;;;;;;;7.03;2.35;;;21.30;99.90;;;;;;5028774;28;20029;-84
2022/10/06 10:36:24;;;;;;;7.07;2.70;;;21.30;99.90;;;;;;5037851;28;20492;-83
2022/10/06 10:38:51;;;;;;;6.85;2.47;;;21.20;99.90;;;;;;5038197;28;20490;-84
2022/10/06 10:41:33;;;;;;;5.57;2.92;;;21.50;99.90;;;;;;5034984;28;20038;-81
2022/10/06 10:44:05;;;;;;;7.20;3.17;;;21.50;99.90;;;;;;5029771;28;20017;-81
2022/10/06 10:46:38;;;;;;;8.85;2.65;;;21.70;99.90;;;;;;5029426;28;20037;-81
2022/10/06 10:49:14;;;;;;;6.75;2.83;;;21.80;99.90;;;;;;5026804;28;20099;-79
2022/10/06 10:51:51;;;;;;;10.75;3.22;;;21.70;99.90;;;;;;5020446;28;20033;-83
2022/10/06 10:54:26;;;;;;;4.28;2.65;;;21.60;99.90;;;;;;5029022;28;20057;-82
2022/10/06 10:56:52;;;;;;;3.83;2.45;;;21.70;99.90;;;;;;5046057;28;20030;-82
2022/10/06 10:59:34;;;;;;;7.10;2.53;;;21.70;99.90;;;;;;5048425;28;20056;-83
2022/10/06 11:02:12;;;;;;;5.53;2.50;;;21.60;99.90;;;;;;5041487;28;20048;-83
2022/10/06 11:04:42;;;;;;;8.07;2.83;;;21.50;99.90;;;;;;5043188;28;20029;-83
2022/10/06 11:07:28;;;;;;;5.10;2.92;;;21.60;99.90;;;;;;5040319;28;20030;-83
2022/10/06 11:10:02;;;;;;;11.27;3.05;;;21.70;99.90;;;;;;5044451;28;20021;-83
2022/10/06 11:12:49;;;;;;;8.88;2.78;;;21.60;99.90;;;;;;5044908;28;20041;-83
2022/10/06 11:15:30;;;;;;;5.78;2.70;;;21.40;99.90;;;;;;5043663;28;20081;-83
2022/10/06 11:18:03;;;;;;;8.32;3.03;;;21.20;99.90;;;;;;5040698;28;20034;-83
2022/10/06 11:20:41;;;;;;;5.75;2.85;;;20.90;99.90;;;;;;5045498;28;20028;-83
2022/10/06 11:23:16;;;;;;;9.82;2.90;;;20.60;99.90;;;;;;5042568;28;20025;-83
2022/10/06 11:26:01;;;;;;;8.38;3.65;;;20.30;99.90;;;;;;5045292;28;20075;-83
2022/10/06 11:28:38;;;;;;;;;;;20.10;99.90;;;;;;5045597;28;20043;-83
2022/10/06 11:31:45;;;;;;;8.73;3.78;;;19.90;99.90;;;;;;5044640;28;19959;-83
2022/10/06 11:34:11;;;;;;;5.72;2.83;;;19.70;99.90;;;;;;5040971;28;20045;-83
2022/10/06 11:37:03;;;;;;;6.47;2.60;;;19.60;99.90;;;;;;5044522;28;20060;-83
2022/10/06 11:39:53;;;;;;;6.00;2.70;;;19.50;99.90;;;;;;5044409;28;20036;-83
2022/10/06 11:42:40;;;;;;;5.47;2.30;;;19.80;99.90;;;;;;5047227;28;20081;-83
2022/10/06 11:45:15;;;;;;;11.38;3.05;;;20.10;99.90;;;;;;5044274;28;20078;-83
2022/10/06 11:48:16;;;;;;;5.38;2.90;;;20.60;99.90;;;;;;5047170;28;20033;-83
2022/10/06 11:50:43;;;;;;;3.85;2.40;;;21.30;99.90;;;;;;5023834;28;20037;-78
2022/10/06 11:53:35;;;;;;;8.93;3.00;;;21.80;99.90;;;;;;5035042;28;20029;-78
2022/10/06 11:56:16;;;;;;;7.97;2.95;;;22.20;99.90;;;;;;5035165;28;20092;-78
2022/10/06 11:58:51;;;;;;;5.32;2.90;;;22.20;99.90;;;;;;5035262;28;20049;-78
2022/10/06 12:01:38;;;;;;;8.93;3.30;;;22.10;99.90;;;;;;5035086;28;20022;-78
2022/10/06 12:04:09;;;;;;;6.03;2.47;;;21.70;99.90;;;;;;5034411;28;20017;-78
2022/10/06 12:06:46;;;;;;;4.85;2.60;;;21.40;99.90;;;;;;5034949;28;20036;-78
2022/10/06 12:09:24;;;;;;;7.40;2.63;;;21.10;99.90;;;;;;5034906;28;20092;-78
2022/10/06 12:11:59;;;;;;;5.13;2.47;;;21.10;99.90;;;;;;5022605;28;20033;-78
2022/10/06 12:14:36;;;;;;;5.15;2.65;;;21.20;99.90;;;;;;5031795;28;20045;-78
2022/10/06 12:17:19;;;;;;;7.85;3.25;;;21.30;99.90;;;;;;5034728;28;20037;-78
2022/10/06 12:19:56;;;;;;;7.45;2.63;;;21.30;99.90;;;;;;5034960;28;20040;-78
2022/10/06 12:22:28;;;;;;;12.93;3.08;;;21.20;99.90;;;;;;5031197;28;20064;-78
2022/10/06 12:25:20;;;;;;;7.63;3.03;;;21.10;99.90;;;;;;5034445;28;20108;-78
2022/10/06 12:28:13;;;;;;;5.00;2.60;;;21.10;99.90;;;;;;5033369;28;20116;-78
2022/10/06 12:31:07;;;;;;;6.53;2.45;;;21.40;99.90;;;;;;5034598;28;20045;-78
2022/10/06 12:33:38;;;;;;;7.57;2.40;;;21.50;99.90;;;;;;5034190;28;20105;-78
2022/10/06 12:36:14;;;;;;;8.52;3.10;;;21.40;99.90;;;;;;5035058;28;20029;-78
2022/10/06 12:38:42;;;;;;;4.88;2.45;;;21.60;99.90;;;;;;5034709;28;20022;-78
2022/10/06 12:41:11;;;;;;;7.43;2.50;;;21.40;99.90;;;;;;5034862;28;20354;-78
2022/10/06 12:43:52;;;;;;;5.97;2.42;;;21.30;99.90;;;;;;5034682;28;20018;-78
2022/10/06 12:46:29;;;;;;;9.27;2.88;;;21.20;99.90;;;;;;5034791;28;20025;-79
2022/10/06 12:49:01;;;;;;;9.35;3.50;;;21.30;99.90;;;;;;5034807;28;20025;-78
2022/10/06 12:51:38;;;;;;;8.02;2.47;;;21.40;99.90;;;;;;5034672;28;20032;-78
2022/10/06 12:54:19;;;;;;;8.32;2.90;;;21.50;99.90;;;;;;5034240;28;20025;-78
2022/10/06 12:57:02;;;;;;;10.05;3.08;;;21.50;99.90;;;;;;5034417;28;20037;-79
2022/10/06 12:59:33;;;;;;;5.90;2.58;;;21.50;99.90;;;;;;5037522;28;20374;-78
2022/10/06 13:02:03;;;;;;;9.98;2.92;;;21.50;99.90;;;;;;5037175;28;20461;-78
2022/10/06 13:04:34;;;;;;;8.32;2.72;;;21.40;99.90;;;;;;5034148;28;20055;-78
2022/10/06 13:07:15;;;;;;;6.03;2.53;;;21.20;99.90;;;;;;5034305;28;20050;-78
2022/10/06 13:09:41;;;;;;;7.82;2.63;;;21.10;99.90;;;;;;5034058;28;20026;-78
2022/10/06 13:12:28;;;;;;;6.75;3.00;;;20.80;99.90;;;;;;5034028;28;20030;-78
2022/10/06 13:15:12;;;;;;;5.78;2.63;;;20.50;99.90;;;;;;5022672;28;20046;-78
2022/10/06 13:17:48;;;;;;;6.30;2.58;;;20.30;99.90;;;;;;5013299;28;20037;-78
2022/10/06 13:20:35;;;;;;;5.65;2.60;;;20.20;99.90;;;;;;5014109;28;20101;-78
2022/10/06 13:23:21;;;;;;;7.13;2.60;;;20.40;99.90;;;;;;5012674;28;20014;-74